createdAt,value
2022-11-16T00:04:19.005Z,54.03
2022-11-16T00:09:27.284Z,54.21
2022-11-16T00:14:32.617Z,54.38
2022-11-16T00:19:35.471Z,53.95
2022-11-16T00:24:38.253Z,54.03
2022-11-16T00:29:41.211Z,54.79
2022-11-16T00:34:44.254Z,54.01
2022-11-16T00:39:47.022Z,54.67
2022-11-16T00:44:49.995Z,55.13
2022-11-16T00:49:53.275Z,55.04
2022-11-16T00:54:57.230Z,54.89
2022-11-16T01:00:00.379Z,55.16
2022-11-16T01:05:03.317Z,55.33
2022-11-16T01:10:11.224Z,55.34
2022-11-16T01:15:16.982Z,55.67
2022-11-16T01:20:21.657Z,55.59
2022-11-16T01:25:25.205Z,55.59
2022-11-16T01:30:28.026Z,55.64
2022-11-16T01:35:48.977Z,56.31
2022-11-16T01:40:52.622Z,56.44
2022-11-16T01:45:56.068Z,56.22
2022-11-16T01:50:58.959Z,56.37
2022-11-16T01:56:04.807Z,56.51
2022-11-16T02:01:26.218Z,56.93
2022-11-16T02:06:45.471Z,56.96
2022-11-16T02:12:20.469Z,57.00
2022-11-16T02:17:33.759Z,57.53
2022-11-16T02:23:18.724Z,57.47
2022-11-16T02:28:44.674Z,57.28
2022-11-16T02:33:50.678Z,57.83
2022-11-16T02:39:06.796Z,57.68
2022-11-16T02:44:16.112Z,57.90
2022-11-16T02:49:20.511Z,58.16
2022-11-16T02:54:25.067Z,58.42
2022-11-16T02:59:41.847Z,58.61
2022-11-16T03:04:49.063Z,58.33
2022-11-16T03:09:54.343Z,58.44
2022-11-16T03:15:04.517Z,59.19
2022-11-16T03:20:15.656Z,59.31
2022-11-16T03:25:21.214Z,59.01
2022-11-16T03:30:33.013Z,59.26
2022-11-16T03:36:00.148Z,59.65
2022-11-16T03:41:08.618Z,59.34
2022-11-16T03:46:13.339Z,59.41
2022-11-16T03:51:16.668Z,59.77
2022-11-16T03:56:19.881Z,59.28
2022-11-16T04:01:23.499Z,59.98
2022-11-16T04:06:58.733Z,59.87
2022-11-16T04:12:20.965Z,60.53
2022-11-16T04:17:44.968Z,60.12
2022-11-16T04:23:11.614Z,60.26
2022-11-16T04:28:17.795Z,60.47
2022-11-16T04:33:44.584Z,60.16
2022-11-16T04:38:48.076Z,60.55
2022-11-16T04:43:51.763Z,60.96
2022-11-16T04:48:54.661Z,60.96
2022-11-16T04:53:59.203Z,60.67
2022-11-16T04:59:03.673Z,60.82
2022-11-16T05:04:06.643Z,61.27
2022-11-16T05:09:09.570Z,60.84
2022-11-16T05:14:13.151Z,60.96
2022-11-16T05:19:37.111Z,61.05
2022-11-16T05:24:40.375Z,61.14
2022-11-16T05:29:44.145Z,60.79
2022-11-16T05:34:50.600Z,61.18
2022-11-16T05:39:56.206Z,61.22
2022-11-16T05:45:06.418Z,61.00
2022-11-16T05:50:10.027Z,59.99
2022-11-16T05:55:16.525Z,61.11
2022-11-16T06:00:20.423Z,60.59
2022-11-16T06:05:27.002Z,61.06
2022-11-16T06:10:31.379Z,60.67
2022-11-16T06:15:38.553Z,60.58
2022-11-16T06:20:43.536Z,60.25
2022-11-16T06:25:46.871Z,60.90
2022-11-16T06:30:50.409Z,60.17
2022-11-16T06:35:53.413Z,59.92
2022-11-16T06:41:00.014Z,60.17
2022-11-16T06:46:05.407Z,60.11
2022-11-16T06:51:08.536Z,59.86
2022-11-16T06:56:15.600Z,60.44
2022-11-16T07:01:23.903Z,59.74
2022-11-16T07:06:31.429Z,59.76
2022-11-16T07:11:36.381Z,59.78
2022-11-16T07:16:39.684Z,58.94
2022-11-16T07:21:42.779Z,58.92
2022-11-16T07:26:50.793Z,58.55
2022-11-16T07:31:57.521Z,58.40
2022-11-16T07:37:18.632Z,58.63
2022-11-16T07:42:21.593Z,58.19
2022-11-16T07:47:37.355Z,57.81
2022-11-16T07:52:46.646Z,57.73
2022-11-16T07:57:57.299Z,57.55
2022-11-16T08:03:00.399Z,57.11
2022-11-16T08:08:03.507Z,56.86
2022-11-16T08:13:09.345Z,56.85
2022-11-16T08:18:12.236Z,56.60
2022-11-16T08:23:16.164Z,56.18
2022-11-16T08:28:19.272Z,55.77
2022-11-16T08:33:23.858Z,55.31
2022-11-16T08:38:28.052Z,54.87
2022-11-16T10:19:23.324Z,31.12
2022-11-16T10:25:15.297Z,33.75
2022-11-16T10:30:19.739Z,34.91
2022-11-16T10:35:35.117Z,32.83
2022-11-16T10:40:40.151Z,27.41
2022-11-16T10:46:19.650Z,29.86
2022-11-16T10:51:22.511Z,22.43
2022-11-16T10:56:37.631Z,28.41
2022-11-16T11:01:43.827Z,24.82
2022-11-16T11:06:49.464Z,24.20
2022-11-16T11:12:21.614Z,24.22
2022-11-16T11:17:24.449Z,24.59
2022-11-16T11:22:28.000Z,24.04
2022-11-16T11:27:35.798Z,24.72
2022-11-16T11:32:40.561Z,26.26
2022-11-16T11:37:43.452Z,27.65
2022-11-16T11:42:53.760Z,30.84
2022-11-16T11:48:02.301Z,35.23
2022-11-16T11:53:10.810Z,38.43
2022-11-16T11:58:18.777Z,40.60
2022-11-16T12:03:58.381Z,41.84
2022-11-16T12:09:05.169Z,41.66
2022-11-16T12:14:13.878Z,41.31
2022-11-16T12:19:34.006Z,42.81
2022-11-16T12:25:14.218Z,43.76
2022-11-16T12:30:21.145Z,43.62
2022-11-16T12:36:09.973Z,43.65
2022-11-16T12:41:41.574Z,44.87
2022-11-16T12:47:02.722Z,44.30
2022-11-16T12:52:35.649Z,44.88
2022-11-16T12:57:48.930Z,46.19
2022-11-16T13:03:24.377Z,47.39
2022-11-16T13:08:44.331Z,47.94
2022-11-16T13:13:53.715Z,49.15
2022-11-16T13:18:58.361Z,49.90
